createdAt,value
2022-08-11T00:01:06.076Z,46.87
2022-08-11T00:03:42.484Z,47.02
2022-08-11T00:06:11.505Z,46.76
2022-08-11T00:08:38.840Z,46.95
2022-08-11T00:11:08.462Z,46.96
2022-08-11T00:13:42.670Z,47.09
2022-08-11T00:16:20.192Z,46.96
2022-08-11T00:18:53.126Z,47.25
2022-08-11T00:21:56.947Z,47.49
2022-08-11T00:24:18.486Z,47.43
2022-08-11T00:26:50.168Z,48.05
2022-08-11T00:29:20.697Z,47.61
2022-08-11T00:32:00.154Z,47.75
2022-08-11T00:34:29.898Z,47.96
2022-08-11T00:37:09.418Z,48.20
2022-08-11T00:39:43.814Z,48.36
2022-08-11T00:42:38.233Z,48.54
2022-08-11T00:45:30.038Z,48.47
2022-08-11T00:48:12.006Z,48.70
2022-08-11T00:51:01.559Z,48.82
2022-08-11T00:53:44.354Z,48.94
2022-08-11T00:56:25.505Z,48.76
2022-08-11T00:59:34.344Z,48.80
2022-08-11T01:02:37.828Z,48.93
2022-08-11T01:05:38.626Z,48.90
2022-08-11T01:08:20.771Z,49.81
2022-08-11T01:11:04.836Z,49.53
2022-08-11T01:13:57.162Z,49.93
2022-08-11T01:17:05.055Z,49.86
2022-08-11T01:20:45.475Z,50.07
2022-08-11T01:23:21.419Z,50.30
2022-08-11T01:26:11.923Z,50.88
2022-08-11T01:29:24.459Z,50.56
2022-08-11T01:31:56.901Z,51.31
2022-08-11T01:34:26.907Z,51.34
2022-08-11T01:37:13.724Z,51.40
2022-08-11T01:39:45.952Z,51.78
2022-08-11T01:43:31.341Z,51.22
2022-08-11T01:46:06.217Z,51.87
2022-08-11T01:48:45.153Z,51.99
2022-08-11T01:51:30.264Z,52.42
2022-08-11T01:54:05.886Z,52.56
2022-08-11T01:57:00.526Z,52.23
2022-08-11T01:59:37.175Z,52.46
2022-08-11T02:02:54.098Z,52.47
2022-08-11T02:05:52.443Z,52.38
2022-08-11T02:08:52.013Z,52.60
2022-08-11T02:11:37.538Z,53.02
2022-08-11T02:14:16.625Z,52.89
2022-08-11T02:16:55.306Z,53.37
2022-08-11T02:20:08.291Z,53.30
2022-08-11T02:23:59.633Z,53.57
2022-08-11T02:26:23.219Z,53.79
2022-08-11T02:28:58.641Z,54.28
2022-08-11T02:32:24.374Z,53.88
2022-08-11T02:35:04.220Z,54.76
2022-08-11T02:37:33.767Z,55.04
2022-08-11T02:40:25.301Z,55.05
2022-08-11T02:43:16.246Z,54.99
2022-08-11T02:46:17.967Z,54.87
2022-08-11T02:49:06.946Z,55.50
2022-08-11T02:51:55.752Z,55.13
2022-08-11T02:54:59.174Z,55.46
2022-08-11T02:57:35.188Z,55.96
2022-08-11T03:00:09.200Z,56.10
2022-08-11T03:02:57.629Z,55.79
2022-08-11T03:05:50.527Z,56.18
2022-08-11T03:08:57.926Z,55.83
2022-08-11T03:12:17.275Z,55.81
2022-08-11T03:15:13.159Z,56.36
2022-08-11T03:17:57.785Z,56.38
2022-08-11T03:20:33.144Z,56.98
2022-08-11T03:23:19.620Z,56.87
2022-08-11T03:25:55.610Z,57.51
2022-08-11T03:28:33.937Z,57.42
2022-08-11T03:31:12.355Z,57.42
2022-08-11T03:34:06.672Z,57.98
2022-08-11T03:37:16.486Z,57.94
2022-08-11T03:40:00.111Z,57.93
2022-08-11T03:42:46.358Z,58.04
2022-08-11T03:45:28.624Z,58.19
2022-08-11T03:48:08.131Z,58.40
2022-08-11T03:51:11.239Z,58.33
2022-08-11T03:53:56.641Z,58.28
2022-08-11T03:57:10.656Z,58.43
2022-08-11T03:59:59.514Z,58.41
2022-08-11T04:02:50.855Z,58.71
2022-08-11T04:05:39.037Z,59.30
2022-08-11T04:08:17.580Z,58.99
2022-08-11T04:11:12.227Z,59.09
2022-08-11T04:14:29.052Z,59.12
2022-08-11T04:17:22.761Z,59.24
2022-08-11T04:20:17.816Z,59.60
2022-08-11T04:23:03.611Z,59.90
2022-08-11T04:25:58.920Z,59.77
2022-08-11T04:28:43.069Z,59.90
2022-08-11T04:31:49.607Z,59.59
2022-08-11T04:34:56.293Z,60.03
2022-08-11T04:38:00.360Z,59.71
2022-08-11T04:41:00.523Z,59.89
2022-08-11T04:43:27.477Z,60.06
2022-08-11T04:46:09.238Z,59.93
2022-08-11T04:49:25.659Z,59.78
2022-08-11T04:52:50.544Z,59.96
2022-08-11T04:55:51.383Z,60.05
2022-08-11T04:58:55.921Z,59.89
2022-08-11T05:01:43.736Z,57.64
2022-08-11T05:05:00.801Z,53.13
2022-08-11T05:07:58.292Z,49.91
2022-08-11T05:10:24.856Z,47.83
2022-08-11T05:13:45.685Z,46.31
2022-08-11T05:16:34.247Z,43.87
2022-08-11T05:19:21.492Z,42.73
2022-08-11T05:22:15.350Z,42.07
2022-08-11T05:25:10.772Z,40.83
2022-08-11T05:28:12.756Z,40.11
2022-08-11T05:31:01.719Z,38.74
2022-08-11T05:33:55.597Z,37.54
2022-08-11T05:36:30.086Z,36.87
2022-08-11T05:39:36.493Z,36.56
2022-08-11T05:42:30.129Z,35.67
2022-08-11T05:45:57.323Z,35.49
2022-08-11T05:48:37.528Z,34.67
2022-08-11T05:51:30.178Z,34.44
2022-08-11T05:54:29.105Z,33.34
2022-08-11T05:57:02.147Z,32.98
2022-08-11T05:59:31.389Z,33.47
2022-08-11T06:02:10.498Z,34.02
2022-08-11T06:04:38.386Z,33.46
2022-08-11T06:07:11.667Z,32.22
2022-08-11T06:09:47.459Z,32.64
2022-08-11T06:12:26.320Z,32.65
2022-08-11T06:14:57.973Z,32.55
2022-08-11T06:17:38.603Z,32.69
2022-08-11T06:20:12.419Z,32.23
2022-08-11T06:22:42.092Z,31.55
2022-08-11T06:25:10.604Z,31.29
2022-08-11T06:27:38.651Z,30.49
2022-08-11T06:30:13.527Z,30.85
2022-08-11T06:32:43.593Z,30.29
2022-08-11T06:35:22.668Z,29.84
2022-08-11T06:38:09.661Z,30.37
2022-08-11T06:40:43.766Z,30.30
2022-08-11T06:43:18.924Z,30.32
2022-08-11T06:46:03.345Z,29.95
2022-08-11T06:48:32.885Z,29.67
2022-08-11T06:51:12.381Z,28.91
2022-08-11T06:54:03.453Z,28.31
2022-08-11T06:57:28.910Z,28.58
2022-08-11T07:00:06.922Z,28.10
2022-08-11T07:02:48.081Z,27.98
2022-08-11T07:05:28.722Z,27.06
2022-08-11T07:08:51.352Z,26.99
2022-08-11T07:11:57.641Z,27.64
2022-08-11T07:14:46.577Z,25.89
2022-08-11T07:17:21.452Z,25.59
2022-08-11T07:20:32.330Z,25.32
2022-08-11T07:23:20.801Z,24.90
2022-08-11T07:26:11.483Z,24.05
2022-08-11T07:28:59.053Z,23.33
2022-08-11T07:31:42.060Z,24.06
2022-08-11T07:34:38.556Z,23.53
2022-08-11T07:37:13.758Z,22.87
2022-08-11T07:39:44.731Z,23.00
2022-08-11T07:42:14.996Z,21.56
2022-08-11T07:45:01.625Z,22.31
2022-08-11T07:47:47.854Z,21.54
2022-08-11T07:50:33.455Z,21.55
2022-08-11T07:53:02.720Z,21.16
2022-08-11T07:55:49.565Z,21.19
2022-08-11T07:58:45.534Z,19.91
2022-08-11T08:01:43.286Z,20.19
2022-08-11T08:04:33.772Z,19.83
2022-08-11T08:07:21.589Z,21.17
2022-08-11T08:10:08.550Z,20.19
2022-08-11T08:12:54.878Z,20.03
2022-08-11T08:15:41.314Z,18.98
2022-08-11T08:18:26.803Z,19.45
2022-08-11T08:20:56.866Z,19.25
2022-08-11T08:23:35.825Z,20.26
2022-08-11T08:26:05.701Z,20.40
2022-08-11T08:28:46.600Z,19.99
2022-08-11T08:31:14.433Z,19.66
2022-08-11T08:33:44.914Z,19.59
2022-08-11T08:36:17.013Z,19.76
2022-08-11T08:38:51.157Z,19.68
2022-08-11T08:41:22.407Z,19.79
2022-08-11T08:43:53.699Z,20.44
2022-08-11T08:46:25.607Z,20.09
2022-08-11T08:48:53.733Z,20.67
2022-08-11T08:51:57.908Z,20.38
2022-08-11T08:54:34.043Z,19.56
2022-08-11T08:57:05.397Z,19.90
2022-08-11T08:59:48.600Z,20.56
2022-08-11T09:02:34.340Z,20.21
2022-08-11T09:05:04.029Z,19.41
2022-08-11T09:07:38.436Z,20.77
2022-08-11T09:10:08.463Z,21.45
2022-08-11T09:12:39.022Z,22.01
2022-08-11T09:15:08.142Z,22.27
2022-08-11T09:17:37.058Z,22.32
2022-08-11T09:20:13.684Z,22.97
2022-08-11T09:24:02.049Z,23.05
2022-08-11T09:26:12.239Z,22.03
2022-08-11T09:28:39.555Z,22.12
2022-08-11T09:31:07.172Z,22.73
2022-08-11T09:33:36.453Z,22.90
2022-08-11T09:36:23.732Z,22.80
2022-08-11T09:39:10.457Z,23.29
2022-08-11T09:42:23.617Z,23.15
2022-08-11T09:44:47.059Z,23.82
2022-08-11T09:47:18.693Z,23.91
2022-08-11T09:49:46.581Z,24.53
2022-08-11T09:52:15.322Z,25.14
2022-08-11T09:54:49.872Z,24.54
2022-08-11T09:57:38.493Z,24.94
2022-08-11T10:00:13.142Z,24.73
2022-08-11T10:02:47.404Z,24.87
2022-08-11T10:05:39.243Z,25.32
2022-08-11T10:08:09.132Z,25.98
2022-08-11T10:10:37.557Z,24.88
2022-08-11T10:14:29.352Z,25.19
2022-08-11T10:16:15.675Z,25.47
2022-08-11T10:18:52.748Z,25.23
2022-08-11T10:21:36.576Z,25.12
2022-08-11T10:24:24.296Z,25.69
2022-08-11T10:26:56.735Z,24.98
2022-08-11T10:29:55.148Z,25.55
2022-08-11T10:32:57.851Z,25.51
2022-08-11T10:35:29.555Z,25.44
2022-08-11T10:38:15.791Z,24.79
2022-08-11T10:40:46.962Z,24.60
2022-08-11T10:44:01.897Z,24.64
2022-08-11T10:46:29.793Z,25.20
2022-08-11T10:48:58.775Z,25.27
2022-08-11T10:51:51.170Z,24.69
2022-08-11T10:54:42.256Z,24.57
2022-08-11T10:57:29.264Z,24.92
2022-08-11T10:59:57.869Z,24.65
2022-08-11T11:02:27.166Z,24.91
2022-08-11T11:05:09.628Z,24.23
2022-08-11T11:07:44.376Z,24.05
2022-08-11T11:10:11.394Z,24.21
2022-08-11T11:13:04.810Z,24.39
2022-08-11T11:15:53.471Z,23.48
2022-08-11T11:18:24.180Z,23.90
2022-08-11T11:20:53.836Z,23.78
2022-08-11T11:23:23.235Z,23.40
2022-08-11T11:26:10.631Z,23.57
2022-08-11T11:28:58.696Z,23.33
2022-08-11T11:31:56.221Z,24.25
2022-08-11T11:34:59.910Z,22.25
2022-08-11T11:37:29.345Z,22.38
2022-08-11T11:39:57.858Z,22.68
2022-08-11T11:42:25.498Z,22.46
2022-08-11T11:44:55.790Z,22.67
2022-08-11T11:47:24.032Z,22.97
2022-08-11T11:49:51.107Z,22.33
2022-08-11T11:52:23.711Z,22.60
2022-08-11T11:54:55.222Z,22.34
2022-08-11T11:57:41.658Z,22.56
2022-08-11T12:00:44.268Z,21.82
2022-08-11T12:03:14.055Z,21.67
2022-08-11T12:05:43.780Z,20.67
2022-08-11T12:08:16.421Z,21.00
2022-08-11T12:11:36.478Z,20.45
2022-08-11T12:14:10.362Z,20.66
2022-08-11T12:16:40.674Z,20.30
2022-08-11T12:19:17.991Z,20.35
2022-08-11T12:22:04.255Z,20.21
2022-08-11T12:24:53.083Z,19.57
2022-08-11T12:27:24.089Z,19.82
2022-08-11T12:29:56.254Z,19.63
2022-08-11T12:32:35.059Z,19.76
2022-08-11T12:35:02.301Z,19.80
2022-08-11T12:37:43.791Z,19.69
2022-08-11T12:40:42.667Z,20.01
2022-08-11T12:43:39.266Z,19.57
2022-08-11T12:46:34.059Z,19.62
2022-08-11T12:49:27.149Z,19.10
2022-08-11T12:52:13.750Z,19.50
2022-08-11T12:55:14.133Z,19.97
2022-08-11T12:58:06.092Z,19.77
2022-08-11T13:00:54.725Z,19.59
2022-08-11T13:03:43.932Z,20.04
2022-08-11T13:06:23.219Z,19.93
2022-08-11T13:08:50.587Z,20.40
2022-08-11T13:11:56.153Z,20.31
2022-08-11T13:14:24.128Z,20.41
2022-08-11T13:17:10.539Z,20.57
2022-08-11T13:19:38.201Z,20.71
2022-08-11T13:22:07.616Z,20.39
2022-08-11T13:24:35.933Z,20.74
2022-08-11T13:27:05.129Z,20.81
2022-08-11T13:29:36.034Z,20.65
2022-08-11T13:32:03.473Z,20.21
2022-08-11T13:34:41.692Z,20.66
2022-08-11T13:37:12.122Z,21.14
2022-08-11T13:39:47.519Z,20.24
2022-08-11T13:42:18.090Z,20.96
2022-08-11T13:44:48.614Z,20.46
2022-08-11T13:47:16.207Z,21.14
2022-08-11T13:49:47.964Z,20.98
2022-08-11T13:52:17.492Z,21.01
2022-08-11T13:54:51.126Z,21.18
2022-08-11T13:58:08.755Z,20.68
2022-08-11T14:00:13.385Z,20.66
2022-08-11T14:02:56.991Z,20.54
2022-08-11T14:05:29.437Z,20.98
2022-08-11T14:08:02.746Z,20.91
2022-08-11T14:10:33.006Z,20.25
2022-08-11T14:13:27.047Z,20.15
2022-08-11T14:15:54.288Z,20.56
2022-08-11T14:18:30.822Z,20.59
2022-08-11T14:21:20.069Z,20.55
2022-08-11T14:23:50.896Z,21.23
2022-08-11T14:26:29.508Z,20.50
2022-08-11T14:29:08.466Z,20.82
2022-08-11T14:31:39.079Z,20.63
2022-08-11T14:34:10.357Z,21.28
2022-08-11T14:36:43.343Z,20.88
2022-08-11T14:39:18.312Z,20.85
2022-08-11T14:42:17.953Z,20.62
2022-08-11T14:45:22.766Z,20.82
2022-08-11T14:47:53.432Z,20.71
2022-08-11T14:50:25.614Z,20.78
2022-08-11T14:53:00.998Z,20.95
2022-08-11T14:55:48.690Z,20.46
2022-08-11T14:58:19.862Z,21.22
2022-08-11T15:00:49.908Z,21.17
2022-08-11T15:03:22.160Z,21.77
2022-08-11T15:05:57.641Z,21.72
2022-08-11T15:08:48.581Z,21.56
2022-08-11T15:11:37.463Z,21.50
2022-08-11T15:14:07.206Z,21.61
2022-08-11T15:16:54.722Z,21.61
2022-08-11T15:19:21.734Z,21.55
2022-08-11T15:22:07.853Z,21.43
2022-08-11T15:24:36.468Z,20.60
2022-08-11T15:27:32.537Z,21.09
2022-08-11T15:30:33.217Z,21.41
2022-08-11T15:33:23.425Z,21.31
2022-08-11T15:36:10.594Z,21.26
2022-08-11T15:38:44.500Z,21.39
2022-08-11T15:41:35.968Z,21.73
2022-08-11T15:44:58.986Z,21.66
2022-08-11T15:47:21.329Z,21.37
2022-08-11T15:50:10.487Z,21.77
2022-08-11T15:52:47.606Z,21.55
2022-08-11T15:55:14.964Z,21.70
2022-08-11T15:58:02.095Z,21.42
2022-08-11T16:00:49.690Z,21.60
2022-08-11T16:04:06.321Z,21.08
2022-08-11T16:06:37.081Z,21.70
2022-08-11T16:09:18.014Z,21.13
2022-08-11T16:11:49.336Z,21.51
2022-08-11T16:14:36.332Z,21.52
2022-08-11T16:17:06.042Z,21.67
2022-08-11T16:19:36.637Z,21.68
2022-08-11T16:22:09.679Z,21.42
2022-08-11T16:27:06.207Z,21.20
2022-08-11T16:27:34.127Z,22.02
2022-08-11T16:30:02.062Z,21.80
2022-08-11T16:32:31.262Z,21.75
2022-08-11T16:35:20.563Z,21.90
2022-08-11T16:38:07.139Z,21.92
2022-08-11T16:40:35.029Z,21.70
2022-08-11T16:43:24.127Z,22.22
2022-08-11T16:46:11.586Z,21.71
2022-08-11T16:48:41.460Z,22.21
2022-08-11T16:51:11.901Z,22.38
2022-08-11T16:53:54.669Z,22.46
2022-08-11T16:56:35.231Z,21.90
2022-08-11T16:59:15.471Z,22.42
2022-08-11T17:01:53.424Z,21.70
2022-08-11T17:05:00.263Z,22.29
2022-08-11T17:07:48.413Z,22.58
2022-08-11T17:10:55.443Z,22.36
2022-08-11T17:13:31.884Z,22.38
2022-08-11T17:16:08.782Z,22.29
2022-08-11T17:19:17.241Z,22.07
2022-08-11T17:22:07.334Z,22.24
2022-08-11T17:24:41.825Z,22.40
2022-08-11T17:27:09.736Z,22.69
2022-08-11T17:29:53.746Z,23.07
2022-08-11T17:33:00.577Z,23.08
2022-08-11T17:35:36.129Z,22.45
2022-08-11T17:38:16.518Z,22.65
2022-08-11T17:41:08.649Z,22.48
2022-08-11T17:43:54.372Z,22.93
2022-08-11T17:46:40.032Z,22.93
2022-08-11T17:49:09.836Z,23.30
2022-08-11T17:51:57.443Z,23.25
2022-08-11T17:54:44.394Z,23.72
2022-08-11T17:57:33.365Z,23.88
2022-08-11T18:00:02.500Z,23.92
2022-08-11T18:03:01.193Z,24.08
2022-08-11T18:05:34.067Z,24.03
2022-08-11T18:08:23.872Z,24.08
2022-08-11T18:11:11.418Z,24.25
2022-08-11T18:14:07.544Z,24.19
2022-08-11T18:16:53.055Z,24.25
2022-08-11T18:19:38.617Z,24.36
2022-08-11T18:22:40.443Z,24.67
2022-08-11T18:25:32.514Z,25.00
2022-08-11T18:28:19.700Z,24.90
2022-08-11T18:31:13.052Z,25.17
2022-08-11T18:34:07.511Z,25.12
2022-08-11T18:37:27.265Z,25.40
2022-08-11T18:40:22.346Z,25.52
2022-08-11T18:43:09.655Z,26.00
2022-08-11T18:46:06.485Z,26.20
2022-08-11T18:48:57.949Z,26.17
2022-08-11T18:51:47.196Z,26.66
2022-08-11T18:54:34.895Z,26.78
2022-08-11T18:57:25.321Z,26.74
2022-08-11T19:00:12.048Z,27.37
2022-08-11T19:02:59.314Z,27.39
2022-08-11T19:06:33.713Z,27.63
2022-08-11T19:08:58.808Z,27.97
2022-08-11T19:11:46.933Z,28.10
2022-08-11T19:14:34.468Z,28.48
2022-08-11T19:17:44.713Z,28.79
2022-08-11T19:20:31.946Z,28.76
2022-08-11T19:23:20.022Z,28.90
2022-08-11T19:26:06.563Z,29.24
2022-08-11T19:28:54.173Z,28.91
2022-08-11T19:31:44.338Z,29.27
2022-08-11T19:34:33.809Z,29.66
2022-08-11T19:37:24.414Z,29.82
2022-08-11T19:40:17.970Z,29.83
2022-08-11T19:43:04.368Z,29.89
2022-08-11T19:46:05.249Z,30.58
2022-08-11T19:48:51.394Z,30.56
2022-08-11T19:51:42.381Z,30.90
2022-08-11T19:54:29.288Z,31.23
2022-08-11T19:57:15.402Z,31.90
2022-08-11T20:00:01.361Z,31.41
2022-08-11T20:02:48.741Z,31.95
2022-08-11T20:05:36.244Z,32.35
2022-08-11T20:08:23.931Z,32.34
2022-08-11T20:11:10.032Z,32.72
2022-08-11T20:13:59.971Z,32.86
2022-08-11T20:16:45.840Z,32.79
2022-08-11T20:19:55.406Z,32.63
2022-08-11T20:22:38.237Z,33.16
2022-08-11T20:25:28.419Z,33.18
2022-08-11T20:28:14.656Z,33.17
2022-08-11T20:31:03.683Z,33.36
2022-08-11T20:33:50.781Z,33.88
2022-08-11T20:36:38.482Z,33.91
2022-08-11T20:39:24.796Z,33.83
2022-08-11T20:42:11.566Z,34.16
2022-08-11T20:44:57.890Z,34.81
2022-08-11T20:47:59.316Z,34.61
2022-08-11T20:50:46.611Z,34.95
2022-08-11T20:53:36.154Z,34.66
2022-08-11T20:56:28.502Z,34.72
2022-08-11T20:59:17.749Z,35.20
2022-08-11T21:02:09.986Z,35.42
2022-08-11T21:04:57.686Z,35.37
2022-08-11T21:07:55.357Z,35.67
2022-08-11T21:10:51.466Z,35.49
2022-08-11T21:13:39.288Z,35.90
2022-08-11T21:16:27.594Z,36.27
2022-08-11T21:20:00.646Z,36.09
2022-08-11T21:22:59.190Z,36.59
2022-08-11T21:26:05.881Z,36.83
2022-08-11T21:28:53.220Z,36.65
2022-08-11T21:31:39.904Z,37.01
2022-08-11T21:34:28.521Z,37.08
2022-08-11T21:37:14.678Z,37.56
2022-08-11T21:40:01.782Z,37.39
2022-08-11T21:42:50.765Z,37.85
2022-08-11T21:45:36.828Z,37.65
2022-08-11T21:48:25.396Z,37.98
2022-08-11T21:51:11.023Z,37.80
2022-08-11T21:53:57.683Z,37.85
2022-08-11T21:56:47.356Z,37.89
2022-08-11T21:59:40.738Z,37.81
2022-08-11T22:02:26.784Z,38.44
2022-08-11T22:05:12.409Z,38.44
2022-08-11T22:08:00.791Z,38.40
2022-08-11T22:10:48.716Z,38.49
2022-08-11T22:13:33.754Z,38.40
2022-08-11T22:16:19.360Z,38.40
2022-08-11T22:19:08.657Z,38.52
2022-08-11T22:21:59.605Z,38.51
2022-08-11T22:24:51.420Z,38.32
2022-08-11T22:27:37.018Z,38.43
2022-08-11T22:30:24.895Z,38.42
2022-08-11T22:33:10.945Z,38.64
2022-08-11T22:35:58.926Z,38.67
2022-08-11T22:38:47.425Z,38.65
2022-08-11T22:41:33.182Z,38.88
2022-08-11T22:44:18.677Z,39.15
2022-08-11T22:47:04.018Z,39.17
2022-08-11T22:49:57.171Z,39.57
2022-08-11T22:52:44.346Z,39.46
2022-08-11T22:55:29.831Z,39.92
2022-08-11T22:58:15.040Z,40.28
2022-08-11T23:01:01.125Z,40.26
2022-08-11T23:03:50.355Z,40.49
2022-08-11T23:06:39.339Z,40.67
2022-08-11T23:09:26.494Z,40.93
2022-08-11T23:12:12.663Z,40.92
2022-08-11T23:15:00.219Z,41.06
2022-08-11T23:17:46.465Z,40.91
2022-08-11T23:20:46.390Z,40.90
2022-08-11T23:23:40.546Z,41.29
2022-08-11T23:26:26.300Z,41.37
2022-08-11T23:29:14.559Z,41.30
2022-08-11T23:32:04.240Z,41.06
2022-08-11T23:35:37.088Z,40.72
2022-08-11T23:38:00.024Z,40.62
2022-08-11T23:40:48.129Z,40.71
2022-08-11T23:43:40.905Z,41.08
2022-08-11T23:46:26.341Z,40.94
2022-08-11T23:49:20.123Z,40.82
2022-08-11T23:52:06.690Z,40.89
2022-08-11T23:54:53.915Z,41.02
2022-08-11T23:57:47.517Z,41.07
